Time;durP1;ratioP1;P1;durP2;ratioP2;P2;SDS_P1;SDS_P2;PMS_P1;PMS_P2;Temp;Humidity;BMP_temperature;BMP_pressure;BME280_temperature;BME280_humidity;BME280_pressure;Samples;Min_cycle;Max_cycle;Signal;HPM_P1;HPM_P2
2021/06/17 00:00:22;;;;;;;8.45;7.57;;;;;;;;;;5072823;28;20036;-60
2021/06/17 00:02:48;;;;;;;8.45;7.45;;;;;;;;;;5072433;28;20025;-61
2021/06/17 00:05:14;;;;;;;8.27;7.47;;;;;;;;;;5071574;28;20123;-60
2021/06/17 00:07:40;;;;;;;8.45;7.53;;;;;;;;;;5071417;28;20036;-60
2021/06/17 00:10:07;;;;;;;9.05;7.50;;;;;;;;;;5072685;28;20036;-60
2021/06/17 00:12:33;;;;;;;9.15;7.35;;;;;;;;;;5072735;28;20066;-60
2021/06/17 00:14:59;;;;;;;8.32;7.60;;;;;;;;;;5072656;28;20029;-60
2021/06/17 00:17:24;;;;;;;9.07;8.05;;;;;;;;;;5072611;28;20013;-60
2021/06/17 00:19:49;;;;;;;9.73;8.05;;;;;;;;;;5072624;28;20032;-60
2021/06/17 00:22:15;;;;;;;9.85;8.60;;;;;;;;;;5072618;28;20019;-60
2021/06/17 00:24:40;;;;;;;11.38;8.77;;;;;;;;;;5072467;28;20032;-60
2021/06/17 00:27:06;;;;;;;10.95;9.15;;;;;;;;;;5072528;28;20073;-60
2021/06/17 00:29:31;;;;;;;8.85;7.95;;;;;;;;;;5072427;28;20379;-60
2021/06/17 00:31:57;;;;;;;10.32;8.25;;;;;;;;;;5072384;28;20017;-60
2021/06/17 00:34:22;;;;;;;9.30;8.35;;;;;;;;;;5072455;28;20033;-60
2021/06/17 00:36:47;;;;;;;10.30;8.15;;;;;;;;;;5075286;28;20459;-60
2021/06/17 00:39:13;;;;;;;9.73;8.05;;;;;;;;;;5076227;28;20029;-60
2021/06/17 00:41:39;;;;;;;8.70;7.80;;;;;;;;;;5076123;28;20020;-60
2021/06/17 00:44:05;;;;;;;8.90;8.00;;;;;;;;;;5074606;28;20032;-60
2021/06/17 00:46:30;;;;;;;10.55;8.02;;;;;;;;;;5075609;28;20047;-60
2021/06/17 00:48:56;;;;;;;8.65;7.68;;;;;;;;;;5075840;28;20020;-60
2021/06/17 00:51:21;;;;;;;11.88;8.80;;;;;;;;;;5075848;28;20378;-60
2021/06/17 00:53:46;;;;;;;10.05;8.13;;;;;;;;;;5075948;28;20136;-60
2021/06/17 00:56:12;;;;;;;10.82;9.05;;;;;;;;;;5075807;28;20546;-60
2021/06/17 00:58:37;;;;;;;8.85;8.02;;;;;;;;;;5074601;28;20036;-60
2021/06/17 01:01:03;;;;;;;8.05;7.25;;;;;;;;;;5075634;28;20059;-60
2021/06/17 01:03:28;;;;;;;8.27;7.57;;;;;;;;;;5075403;28;20110;-60
2021/06/17 01:05:54;;;;;;;9.32;7.65;;;;;;;;;;5075513;28;20036;-60
2021/06/17 01:08:38;;;;;;;8.98;7.85;;;;;;;;;;5075755;28;20027;-60
2021/06/17 01:11:08;;;;;;;8.73;7.88;;;;;;;;;;5075750;28;20478;-60
2021/06/17 01:13:33;;;;;;;8.95;7.70;;;;;;;;;;5075588;28;20028;-60
2021/06/17 01:16:11;;;;;;;8.73;7.75;;;;;;;;;;5075453;28;20030;-60
2021/06/17 01:18:51;;;;;;;10.38;8.40;;;;;;;;;;5075468;28;20028;-60
2021/06/17 01:21:31;;;;;;;9.93;8.80;;;;;;;;;;5075382;28;20054;-60
2021/06/17 01:23:57;;;;;;;;;;;;;;;;;;5075773;28;20494;-60
2021/06/17 01:26:35;;;;;;;11.05;8.57;;;;;;;;;;5075201;28;19982;-60
2021/06/17 01:29:02;;;;;;;11.07;8.98;;;;;;;;;;5075174;28;20048;-60
2021/06/17 01:31:30;;;;;;;12.48;9.27;;;;;;;;;;5075068;28;20028;-60
2021/06/17 01:33:56;;;;;;;9.73;8.77;;;;;;;;;;5075073;28;20459;-60
2021/06/17 01:36:24;;;;;;;10.80;8.50;;;;;;;;;;5075075;28;20029;-60
2021/06/17 01:38:53;;;;;;;9.77;8.68;;;;;;;;;;5074997;28;20025;-60
2021/06/17 01:41:20;;;;;;;9.57;8.57;;;;;;;;;;5074963;28;20020;-60
2021/06/17 01:43:46;;;;;;;10.13;9.07;;;;;;;;;;5074941;28;20438;-60
2021/06/17 01:46:12;;;;;;;10.60;8.95;;;;;;;;;;5073529;28;20023;-60
2021/06/17 01:48:37;;;;;;;10.52;9.43;;;;;;;;;;5074141;28;20471;-60
2021/06/17 01:51:03;;;;;;;9.85;8.85;;;;;;;;;;5074758;28;20021;-60
2021/06/17 01:53:29;;;;;;;14.13;9.65;;;;;;;;;;5074592;28;20048;-60
2021/06/17 01:55:57;;;;;;;11.38;8.93;;;;;;;;;;5074587;28;20024;-60
2021/06/17 01:58:22;;;;;;;11.25;9.10;;;;;;;;;;5074434;28;20032;-60
2021/06/17 02:00:49;;;;;;;10.35;9.45;;;;;;;;;;5074486;28;20363;-60
2021/06/17 02:03:15;;;;;;;10.30;9.15;;;;;;;;;;5072628;28;20494;-61
2021/06/17 02:05:41;;;;;;;11.10;8.98;;;;;;;;;;5074670;28;20041;-60
2021/06/17 02:08:08;;;;;;;11.05;9.27;;;;;;;;;;5074212;28;20036;-60
2021/06/17 02:10:34;;;;;;;11.93;9.68;;;;;;;;;;5074341;28;20027;-60
2021/06/17 02:12:59;;;;;;;10.32;9.35;;;;;;;;;;5074334;28;20052;-60
2021/06/17 02:15:29;;;;;;;11.63;9.95;;;;;;;;;;5074287;28;20445;-60
2021/06/17 02:17:56;;;;;;;9.70;8.63;;;;;;;;;;5074270;28;20487;-60
2021/06/17 02:20:22;;;;;;;10.38;9.07;;;;;;;;;;5074337;28;20051;-60
2021/06/17 02:22:49;;;;;;;12.10;9.30;;;;;;;;;;5074091;28;20086;-60
2021/06/17 02:25:19;;;;;;;10.55;9.32;;;;;;;;;;5074036;28;20103;-60
2021/06/17 02:27:47;;;;;;;12.13;8.95;;;;;;;;;;5074018;28;20036;-60
2021/06/17 02:30:14;;;;;;;13.82;9.43;;;;;;;;;;5073855;28;20016;-60
2021/06/17 02:32:42;;;;;;;10.43;9.23;;;;;;;;;;5073922;28;20044;-60
2021/06/17 02:35:08;;;;;;;11.20;9.77;;;;;;;;;;5072577;28;20421;-60
2021/06/17 02:37:34;;;;;;;10.85;9.57;;;;;;;;;;5073837;28;20029;-60
2021/06/17 02:40:00;;;;;;;11.13;9.85;;;;;;;;;;5073657;28;20047;-60
2021/06/17 02:42:26;;;;;;;12.95;11.30;;;;;;;;;;5073720;28;20025;-60
2021/06/17 02:44:51;;;;;;;13.52;10.32;;;;;;;;;;5073634;28;20463;-60
2021/06/17 02:47:17;;;;;;;11.82;10.10;;;;;;;;;;5073328;28;20028;-60
2021/06/17 02:49:42;;;;;;;16.98;11.40;;;;;;;;;;5073336;28;20020;-60
2021/06/17 02:52:08;;;;;;;15.27;11.35;;;;;;;;;;5073618;28;20021;-60
2021/06/17 02:54:33;;;;;;;14.75;11.35;;;;;;;;;;5073507;28;20024;-60
2021/06/17 02:57:07;;;;;;;15.63;10.38;;;;;;;;;;5073543;28;20031;-60
2021/06/17 02:59:32;;;;;;;14.30;11.35;;;;;;;;;;5072538;28;20089;-60
2021/06/17 03:02:01;;;;;;;15.50;11.20;;;;;;;;;;5073520;28;20024;-60
2021/06/17 03:04:27;;;;;;;11.85;10.48;;;;;;;;;;5073369;28;20036;-60
2021/06/17 03:06:52;;;;;;;13.55;10.45;;;;;;;;;;5073267;28;20047;-60
2021/06/17 03:09:25;;;;;;;13.18;10.32;;;;;;;;;;5073421;28;20020;-60
2021/06/17 03:11:53;;;;;;;12.10;10.85;;;;;;;;;;5072293;28;20127;-60
2021/06/17 03:14:21;;;;;;;12.50;9.75;;;;;;;;;;5073332;28;20009;-60
2021/06/17 03:16:49;;;;;;;12.45;9.93;;;;;;;;;;5073321;28;20398;-60
2021/06/17 03:19:15;;;;;;;11.90;10.07;;;;;;;;;;5071909;28;20054;-60
2021/06/17 03:21:44;;;;;;;11.32;9.32;;;;;;;;;;5073172;28;20039;-60
2021/06/17 03:24:10;;;;;;;11.63;10.00;;;;;;;;;;5073178;28;20031;-60
2021/06/17 03:26:37;;;;;;;11.13;10.00;;;;;;;;;;5072966;28;20032;-60
2021/06/17 03:29:03;;;;;;;13.60;9.98;;;;;;;;;;5073108;28;20421;-60
2021/06/17 03:31:30;;;;;;;12.32;9.73;;;;;;;;;;5073321;28;20025;-60
2021/06/17 03:33:56;;;;;;;12.18;10.43;;;;;;;;;;5073043;28;20027;-60
2021/06/17 03:36:22;;;;;;;12.18;10.13;;;;;;;;;;5072965;28;20123;-60
2021/06/17 03:38:48;;;;;;;12.00;9.25;;;;;;;;;;5072918;28;20108;-60
2021/06/17 03:41:14;;;;;;;14.55;10.43;;;;;;;;;;5072934;28;20033;-60
2021/06/17 03:43:41;;;;;;;9.95;8.77;;;;;;;;;;5073027;28;20475;-60
2021/06/17 03:46:09;;;;;;;13.07;9.73;;;;;;;;;;5072860;28;20437;-60
2021/06/17 03:48:35;;;;;;;11.60;10.40;;;;;;;;;;5072829;28;20052;-60
2021/06/17 03:51:01;;;;;;;13.43;9.68;;;;;;;;;;5072800;28;20430;-60
2021/06/17 03:53:26;;;;;;;12.82;10.25;;;;;;;;;;5072786;28;20017;-60
2021/06/17 03:55:52;;;;;;;13.35;10.23;;;;;;;;;;5072920;28;20142;-60
2021/06/17 03:58:20;;;;;;;10.70;9.60;;;;;;;;;;5072824;28;20040;-60
2021/06/17 04:00:46;;;;;;;10.68;9.57;;;;;;;;;;5072819;28;20033;-60
2021/06/17 04:03:12;;;;;;;10.95;9.55;;;;;;;;;;5072279;28;20028;-60
2021/06/17 04:05:38;;;;;;;13.18;9.60;;;;;;;;;;5073099;28;20032;-60
2021/06/17 04:08:06;;;;;;;10.90;9.30;;;;;;;;;;5072698;28;20435;-60
2021/06/17 04:10:32;;;;;;;15.13;9.82;;;;;;;;;;5073795;28;20021;-60
2021/06/17 04:12:59;;;;;;;11.68;8.52;;;;;;;;;;5076735;28;20066;-60
2021/06/17 04:15:25;;;;;;;9.88;8.93;;;;;;;;;;5076597;28;20038;-60
2021/06/17 04:17:52;;;;;;;15.30;9.35;;;;;;;;;;5076585;28;20051;-60
2021/06/17 04:20:21;;;;;;;13.50;9.25;;;;;;;;;;5076309;28;20475;-60
2021/06/17 04:22:48;;;;;;;12.02;9.38;;;;;;;;;;5076442;28;20471;-60
2021/06/17 04:25:16;;;;;;;12.63;9.52;;;;;;;;;;5076305;28;20067;-60
2021/06/17 04:27:43;;;;;;;13.68;8.55;;;;;;;;;;5076360;28;20008;-60
2021/06/17 04:30:10;;;;;;;10.80;9.57;;;;;;;;;;5076393;28;20459;-60
2021/06/17 04:32:35;;;;;;;14.50;8.77;;;;;;;;;;5076265;28;20020;-60
2021/06/17 04:35:01;;;;;;;11.07;9.05;;;;;;;;;;5076162;28;20039;-60
2021/06/17 04:37:27;;;;;;;12.18;9.13;;;;;;;;;;5076398;28;20036;-60
2021/06/17 04:39:57;;;;;;;11.82;9.45;;;;;;;;;;5076071;28;20032;-60
2021/06/17 04:42:22;;;;;;;17.55;9.20;;;;;;;;;;5076171;28;20028;-60
2021/06/17 04:44:48;;;;;;;10.60;9.05;;;;;;;;;;5075955;28;20037;-60
2021/06/17 04:47:15;;;;;;;11.73;8.32;;;;;;;;;;5075789;28;20024;-60
2021/06/17 04:49:41;;;;;;;12.38;8.82;;;;;;;;;;5075867;28;20029;-60
2021/06/17 04:52:12;;;;;;;9.57;8.60;;;;;;;;;;5075862;28;20458;-60
2021/06/17 04:54:38;;;;;;;9.18;8.27;;;;;;;;;;5075857;28;20021;-60
2021/06/17 04:57:04;;;;;;;9.23;8.40;;;;;;;;;;5075766;28;20028;-60
2021/06/17 04:59:29;;;;;;;11.93;8.05;;;;;;;;;;5075601;28;20482;-60
2021/06/17 05:01:56;;;;;;;10.98;9.15;;;;;;;;;;5075657;28;20021;-60
2021/06/17 05:04:22;;;;;;;11.45;7.85;;;;;;;;;;5075536;28;20094;-60
2021/06/17 05:12:09;;;;;;;9.98;7.72;;;;;;;;;;5075662;28;20107;-60
2021/06/17 05:14:36;;;;;;;12.68;7.80;;;;;;;;;;5075442;28;20107;-60
2021/06/17 05:17:01;;;;;;;9.43;7.20;;;;;;;;;;5075316;28;20040;-60
2021/06/17 05:19:26;;;;;;;9.98;6.80;;;;;;;;;;5075515;28;20027;-60
2021/06/17 05:21:52;;;;;;;7.78;6.93;;;;;;;;;;5073098;28;20111;-60
2021/06/17 05:24:17;;;;;;;8.43;7.10;;;;;;;;;;5074088;28;20051;-60
2021/06/17 05:26:43;;;;;;;9.98;7.50;;;;;;;;;;5073797;28;20071;-60
2021/06/17 05:29:09;;;;;;;7.97;7.10;;;;;;;;;;5075326;28;20020;-60
2021/06/17 05:31:34;;;;;;;10.85;7.10;;;;;;;;;;5075166;28;20074;-60
2021/06/17 05:34:00;;;;;;;6.95;5.32;;;;;;;;;;5074915;28;20017;-61
2021/06/17 05:36:26;;;;;;;9.05;7.15;;;;;;;;;;5075223;28;20063;-60
2021/06/17 05:38:52;;;;;;;7.25;6.45;;;;;;;;;;5075057;28;20428;-60
2021/06/17 05:41:18;;;;;;;8.90;6.90;;;;;;;;;;5074987;28;20036;-60
2021/06/17 05:43:43;;;;;;;7.47;6.78;;;;;;;;;;5074829;28;20021;-60
2021/06/17 05:46:09;;;;;;;9.93;6.78;;;;;;;;;;5074666;28;20131;-60
2021/06/17 05:48:35;;;;;;;8.57;6.95;;;;;;;;;;5073454;28;20012;-60
2021/06/17 05:51:01;;;;;;;12.02;6.43;;;;;;;;;;5073534;28;20034;-60
2021/06/17 05:53:27;;;;;;;10.05;6.45;;;;;;;;;;5074739;28;20103;-60
2021/06/17 05:55:52;;;;;;;8.50;6.70;;;;;;;;;;5074692;28;20028;-60
2021/06/17 05:58:18;;;;;;;7.07;6.38;;;;;;;;;;5074728;28;20023;-60
2021/06/17 06:00:43;;;;;;;10.23;6.88;;;;;;;;;;5074569;28;20136;-60
2021/06/17 06:03:09;;;;;;;9.90;7.20;;;;;;;;;;5074351;28;20040;-60
2021/06/17 06:05:35;;;;;;;6.95;6.30;;;;;;;;;;5074448;28;20089;-60
2021/06/17 06:08:02;;;;;;;6.20;5.70;;;;;;;;;;5074565;28;20429;-60
2021/06/17 06:10:28;;;;;;;8.82;6.90;;;;;;;;;;5074174;28;20055;-60
2021/06/17 06:12:54;;;;;;;6.72;6.07;;;;;;;;;;5074245;28;20405;-60
2021/06/17 06:15:19;;;;;;;6.65;6.03;;;;;;;;;;5074353;28;20024;-60
2021/06/17 06:17:45;;;;;;;7.57;5.88;;;;;;;;;;5074349;28;20016;-60
2021/06/17 06:20:11;;;;;;;10.20;6.10;;;;;;;;;;5074051;28;20095;-60
2021/06/17 06:22:36;;;;;;;6.72;6.03;;;;;;;;;;5072813;28;20364;-60
2021/06/17 06:25:03;;;;;;;6.68;5.95;;;;;;;;;;5073933;28;20115;-60
2021/06/17 06:27:28;;;;;;;6.47;5.88;;;;;;;;;;5074036;28;20076;-60
2021/06/17 06:29:56;;;;;;;7.15;6.10;;;;;;;;;;5073680;28;20032;-60
2021/06/17 06:32:21;;;;;;;6.25;5.75;;;;;;;;;;5072818;28;20021;-60
2021/06/17 06:34:47;;;;;;;7.28;5.68;;;;;;;;;;5073748;28;20070;-60
2021/06/17 06:37:12;;;;;;;6.35;5.75;;;;;;;;;;5073925;28;20059;-60
2021/06/17 06:39:38;;;;;;;9.60;5.53;;;;;;;;;;5073753;28;20032;-60
2021/06/17 06:42:03;;;;;;;6.50;5.90;;;;;;;;;;5072664;28;20032;-60
2021/06/17 06:44:29;;;;;;;9.15;5.85;;;;;;;;;;5073680;28;20534;-60
2021/06/17 06:46:56;;;;;;;8.68;5.50;;;;;;;;;;5073718;28;20451;-60
2021/06/17 06:49:21;;;;;;;5.88;5.38;;;;;;;;;;5073598;28;20082;-60
2021/06/17 06:51:47;;;;;;;6.05;5.45;;;;;;;;;;5073521;28;20012;-60
2021/06/17 06:54:12;;;;;;;6.00;5.40;;;;;;;;;;5073475;28;20028;-60
2021/06/17 06:56:38;;;;;;;10.38;5.68;;;;;;;;;;5073605;28;20032;-60
2021/06/17 06:59:04;;;;;;;7.78;5.35;;;;;;;;;;5073649;28;20028;-60
2021/06/17 07:01:29;;;;;;;7.25;5.05;;;;;;;;;;5073599;28;20021;-60
2021/06/17 07:03:55;;;;;;;5.53;5.10;;;;;;;;;;5071736;28;20542;-60
2021/06/17 07:06:20;;;;;;;5.82;5.18;;;;;;;;;;5073214;28;20033;-60
2021/06/17 07:08:46;;;;;;;6.13;5.50;;;;;;;;;;5073241;28;20467;-60
2021/06/17 07:11:11;;;;;;;5.15;4.75;;;;;;;;;;5073378;28;20081;-60
2021/06/17 07:13:37;;;;;;;5.13;4.72;;;;;;;;;;5073445;28;20023;-60
2021/06/17 07:16:04;;;;;;;6.82;5.28;;;;;;;;;;5073167;28;20093;-60
2021/06/17 07:18:30;;;;;;;5.10;4.60;;;;;;;;;;5073230;28;20021;-60
2021/06/17 07:20:55;;;;;;;5.97;4.93;;;;;;;;;;5073096;28;20389;-60
2021/06/17 07:23:21;;;;;;;6.30;5.22;;;;;;;;;;5073211;28;20029;-60
2021/06/17 07:25:47;;;;;;;5.05;4.38;;;;;;;;;;5072665;28;20037;-60
2021/06/17 07:28:12;;;;;;;7.93;5.00;;;;;;;;;;5073139;28;20016;-60
2021/06/17 07:30:38;;;;;;;5.80;4.75;;;;;;;;;;5073273;28;20029;-60
2021/06/17 07:33:04;;;;;;;6.00;4.50;;;;;;;;;;5073196;28;20096;-60
2021/06/17 07:35:30;;;;;;;4.97;4.53;;;;;;;;;;5072984;28;20078;-60
2021/06/17 07:37:55;;;;;;;5.75;4.95;;;;;;;;;;5072920;28;20020;-60
2021/06/17 07:40:21;;;;;;;7.53;5.00;;;;;;;;;;5073114;28;20097;-60
2021/06/17 07:42:48;;;;;;;5.13;4.53;;;;;;;;;;5073209;28;20021;-60
2021/06/17 07:45:13;;;;;;;6.70;4.90;;;;;;;;;;5073459;28;20024;-60
2021/06/17 07:47:39;;;;;;;5.47;5.03;;;;;;;;;;5077080;28;20126;-60
2021/06/17 07:50:05;;;;;;;5.57;4.82;;;;;;;;;;5076849;28;20029;-60
2021/06/17 07:52:31;;;;;;;6.07;5.25;;;;;;;;;;5077116;28;20024;-60
2021/06/17 07:54:57;;;;;;;6.28;4.75;;;;;;;;;;5077054;28;20437;-60
2021/06/17 07:57:22;;;;;;;6.43;5.05;;;;;;;;;;5076839;28;20059;-60
2021/06/17 07:59:47;;;;;;;7.45;5.45;;;;;;;;;;5076908;28;20033;-60
2021/06/17 08:02:13;;;;;;;6.85;4.78;;;;;;;;;;5076915;28;20463;-60
2021/06/17 08:04:38;;;;;;;10.57;5.63;;;;;;;;;;5076560;28;20505;-60
2021/06/17 08:07:04;;;;;;;5.82;4.95;;;;;;;;;;5076787;28;20039;-60
2021/06/17 08:09:29;;;;;;;6.00;4.97;;;;;;;;;;5076694;28;20044;-60
2021/06/17 08:11:55;;;;;;;5.85;5.25;;;;;;;;;;5076673;28;20027;-60
2021/06/17 08:14:24;;;;;;;5.18;4.78;;;;;;;;;;5076615;28;20021;-60
2021/06/17 08:16:51;;;;;;;7.93;5.35;;;;;;;;;;5076547;28;20035;-60
2021/06/17 08:19:16;;;;;;;5.07;4.68;;;;;;;;;;5076528;28;20020;-60
2021/06/17 08:21:42;;;;;;;5.65;5.15;;;;;;;;;;5076199;28;20138;-60
2021/06/17 08:24:07;;;;;;;7.53;5.13;;;;;;;;;;5076502;28;20029;-60
2021/06/17 08:26:33;;;;;;;5.93;5.32;;;;;;;;;;5076253;28;20115;-60
2021/06/17 08:28:59;;;;;;;7.05;5.60;;;;;;;;;;5076366;28;20016;-60
2021/06/17 08:31:25;;;;;;;6.93;5.63;;;;;;;;;;5076254;28;20024;-60
2021/06/17 08:33:50;;;;;;;7.70;5.35;;;;;;;;;;5076140;28;20027;-60
2021/06/17 08:36:16;;;;;;;6.97;5.68;;;;;;;;;;5075060;28;20029;-60
2021/06/17 08:38:42;;;;;;;8.25;5.32;;;;;;;;;;5076125;28;20081;-60
2021/06/17 08:41:08;;;;;;;8.90;6.00;;;;;;;;;;5076042;28;20024;-60
2021/06/17 08:43:33;;;;;;;6.13;5.20;;;;;;;;;;5076058;28;20027;-60
2021/06/17 08:45:59;;;;;;;6.80;5.72;;;;;;;;;;5075896;28;20024;-60
2021/06/17 08:48:24;;;;;;;7.80;5.47;;;;;;;;;;5075974;28;20016;-60
2021/06/17 08:50:53;;;;;;;8.15;5.57;;;;;;;;;;5074824;28;20054;-60
2021/06/17 08:53:18;;;;;;;5.65;5.13;;;;;;;;;;5075847;28;20091;-60
2021/06/17 08:55:44;;;;;;;6.13;5.53;;;;;;;;;;5075753;28;20060;-60
2021/06/17 08:58:09;;;;;;;5.88;5.28;;;;;;;;;;5075803;28;20027;-60
2021/06/17 09:00:36;;;;;;;4.63;4.13;;;;;;;;;;5075747;28;20494;-60
2021/06/17 09:03:09;;;;;;;5.43;4.90;;;;;;;;;;5075420;28;20029;-60
2021/06/17 09:05:37;;;;;;;5.80;5.30;;;;;;;;;;5075611;28;20052;-60
2021/06/17 09:08:03;;;;;;;5.32;4.85;;;;;;;;;;5075795;28;20474;-60
2021/06/17 09:10:29;;;;;;;2.10;2.00;;;;;;;;;;5075723;28;20025;-60
2021/06/17 09:12:56;;;;;;;5.70;5.20;;;;;;;;;;5075437;28;20078;-60
2021/06/17 09:15:32;;;;;;;6.78;5.13;;;;;;;;;;5075555;28;20024;-60
2021/06/17 09:18:07;;;;;;;5.05;4.55;;;;;;;;;;5075640;28;20044;-60
2021/06/17 09:20:33;;;;;;;6.25;5.30;;;;;;;;;;5075389;28;20094;-60
2021/06/17 09:23:15;;;;;;;5.45;4.95;;;;;;;;;;5075353;28;20025;-60
2021/06/17 09:25:51;;;;;;;6.72;4.88;;;;;;;;;;5074350;28;20048;-60
2021/06/17 09:28:17;;;;;;;6.47;5.00;;;;;;;;;;5075278;28;20034;-60
2021/06/17 09:30:42;;;;;;;6.50;4.82;;;;;;;;;;5075132;28;20019;-60
2021/06/17 09:33:11;;;;;;;6.85;5.28;;;;;;;;;;5075137;28;20036;-60
2021/06/17 09:35:50;;;;;;;4.47;4.05;;;;;;;;;;5075338;28;20024;-60
2021/06/17 09:38:15;;;;;;;5.40;4.90;;;;;;;;;;5075148;28;20437;-60
2021/06/17 09:40:50;;;;;;;7.25;4.63;;;;;;;;;;5074944;28;20024;-60
2021/06/17 09:43:23;;;;;;;4.70;4.30;;;;;;;;;;5073740;28;20505;-60
2021/06/17 09:45:49;;;;;;;6.20;4.93;;;;;;;;;;5074806;28;20024;-60
2021/06/17 09:48:33;;;;;;;5.70;5.18;;;;;;;;;;5073423;28;20024;-60
2021/06/17 09:50:59;;;;;;;5.00;4.30;;;;;;;;;;5074871;28;20082;-60
2021/06/17 09:53:25;;;;;;;5.95;5.07;;;;;;;;;;5074836;28;20405;-60
2021/06/17 09:55:51;;;;;;;5.00;4.53;;;;;;;;;;5056941;28;20097;-60
2021/06/17 09:58:36;;;;;;;5.45;4.93;;;;;;;;;;5074610;28;20020;-60
2021/06/17 10:01:02;;;;;;;5.28;4.72;;;;;;;;;;5073267;28;20032;-60
2021/06/17 10:03:28;;;;;;;8.45;4.97;;;;;;;;;;5072855;28;20036;-60
2021/06/17 10:05:55;;;;;;;5.35;4.78;;;;;;;;;;5074324;28;20024;-60
2021/06/17 10:08:20;;;;;;;4.82;4.47;;;;;;;;;;5073594;28;20554;-60
2021/06/17 10:10:46;;;;;;;5.65;5.15;;;;;;;;;;5074530;28;20127;-60
2021/06/17 10:13:11;;;;;;;5.50;5.05;;;;;;;;;;5074350;28;20074;-60
2021/06/17 10:15:37;;;;;;;5.45;4.95;;;;;;;;;;5074234;28;20368;-60
2021/06/17 10:18:02;;;;;;;6.03;4.80;;;;;;;;;;5074294;28;20020;-60
2021/06/17 10:20:28;;;;;;;5.63;4.88;;;;;;;;;;5072887;28;20028;-60
2021/06/17 10:22:54;;;;;;;6.72;4.57;;;;;;;;;;5074124;28;20017;-60
2021/06/17 10:25:24;;;;;;;5.20;4.70;;;;;;;;;;5073993;28;20047;-60
2021/06/17 10:27:50;;;;;;;4.72;4.35;;;;;;;;;;5072790;28;20032;-60
2021/06/17 10:30:19;;;;;;;5.05;4.57;;;;;;;;;;5074019;28;20033;-60
2021/06/17 10:32:45;;;;;;;5.03;4.53;;;;;;;;;;5073981;28;20055;-60
2021/06/17 10:35:24;;;;;;;5.43;4.63;;;;;;;;;;5073920;28;20096;-60
2021/06/17 10:37:51;;;;;;;4.53;4.13;;;;;;;;;;5073973;28;20360;-60
2021/06/17 10:40:19;;;;;;;4.45;4.05;;;;;;;;;;5073974;28;20024;-60
2021/06/17 10:42:47;;;;;;;4.00;3.47;;;;;;;;;;5073849;28;20075;-60
2021/06/17 10:45:15;;;;;;;5.10;4.70;;;;;;;;;;5073721;28;20028;-60
2021/06/17 10:47:45;;;;;;;4.90;4.50;;;;;;;;;;5073524;28;20056;-60
2021/06/17 10:50:14;;;;;;;5.28;4.70;;;;;;;;;;5073711;28;20028;-60
2021/06/17 10:52:42;;;;;;;5.30;4.90;;;;;;;;;;5073479;28;20079;-60
2021/06/17 10:55:12;;;;;;;6.57;5.25;;;;;;;;;;5073897;28;20429;-60
2021/06/17 11:00:28;;;;;;;5.38;4.35;;;;;;;;;;5073462;28;20032;-60
2021/06/17 11:02:55;;;;;;;10.65;5.50;;;;;;;;;;5073114;28;20041;-60
2021/06/17 11:05:35;;;;;;;6.53;4.65;;;;;;;;;;5072314;28;20589;-60
2021/06/17 11:08:13;;;;;;;5.53;4.95;;;;;;;;;;5073573;28;20233;-60
2021/06/17 11:10:57;;;;;;;5.50;5.00;;;;;;;;;;5073392;28;20024;-60
2021/06/17 11:13:28;;;;;;;6.38;4.57;;;;;;;;;;5073422;28;20466;-60
2021/06/17 11:16:03;;;;;;;4.95;4.60;;;;;;;;;;5073290;28;20021;-60
2021/06/17 11:18:41;;;;;;;6.13;4.90;;;;;;;;;;5073173;28;20455;-60
2021/06/17 11:21:27;;;;;;;4.35;4.05;;;;;;;;;;5072428;28;20027;-60
2021/06/17 11:23:56;;;;;;;5.60;4.38;;;;;;;;;;5073252;28;20025;-60
2021/06/17 11:26:41;;;;;;;5.32;4.70;;;;;;;;;;5073277;28;20079;-60
2021/06/17 11:29:10;;;;;;;4.00;3.70;;;;;;;;;;5073251;28;20483;-60
2021/06/17 11:31:40;;;;;;;6.07;4.70;;;;;;;;;;5073206;28;20375;-60
2021/06/17 11:34:06;;;;;;;5.63;4.70;;;;;;;;;;5073087;28;20024;-60
2021/06/17 11:36:32;;;;;;;5.40;5.00;;;;;;;;;;5073154;28;20032;-60
2021/06/17 11:39:02;;;;;;;5.55;5.05;;;;;;;;;;5071894;28;20043;-60
2021/06/17 11:41:30;;;;;;;5.38;4.80;;;;;;;;;;5072998;28;20028;-60
2021/06/17 11:43:57;;;;;;;5.38;4.88;;;;;;;;;;5072897;28;20475;-60
2021/06/17 11:46:27;;;;;;;8.65;5.68;;;;;;;;;;5071662;28;20032;-60
2021/06/17 11:48:53;;;;;;;;;;;;;;;;;;5073390;28;20430;-60
2021/06/17 11:51:18;;;;;;;5.80;5.30;;;;;;;;;;5073087;28;19905;-60
2021/06/17 11:53:47;;;;;;;5.75;5.30;;;;;;;;;;5073019;28;20263;-60
2021/06/17 11:56:21;;;;;;;5.05;4.65;;;;;;;;;;5072875;28;20070;-60
2021/06/17 11:58:47;;;;;;;6.28;5.63;;;;;;;;;;5071563;28;20124;-60
2021/06/17 12:01:13;;;;;;;5.93;5.53;;;;;;;;;;5072777;28;20104;-60
2021/06/17 12:03:38;;;;;;;9.13;6.88;;;;;;;;;;5072392;28;20502;-60
2021/06/17 12:06:09;;;;;;;8.50;5.90;;;;;;;;;;5072728;28;20119;-60
2021/06/17 12:08:34;;;;;;;;;;;;;;;;;;5073214;28;20439;-60
2021/06/17 12:11:02;;;;;;;6.73;5.67;;;;;;;;;;5071580;28;19939;-60
2021/06/17 12:13:28;;;;;;;6.97;6.28;;;;;;;;;;5072766;28;20271;-60
2021/06/17 12:15:57;;;;;;;8.00;5.95;;;;;;;;;;5072662;28;20600;-60
2021/06/17 12:18:23;;;;;;;6.32;5.85;;;;;;;;;;5072702;28;20470;-60
2021/06/17 12:20:49;;;;;;;5.70;5.18;;;;;;;;;;5072731;28;20109;-60
2021/06/17 12:23:19;;;;;;;6.78;5.72;;;;;;;;;;5072673;28;20035;-60
2021/06/17 12:25:46;;;;;;;8.43;6.45;;;;;;;;;;5071437;28;20386;-60
2021/06/17 12:28:13;;;;;;;11.43;8.02;;;;;;;;;;5072659;28;20028;-60
2021/06/17 12:30:45;;;;;;;9.35;8.00;;;;;;;;;;5072722;28;20009;-60
2021/06/17 12:33:34;;;;;;;7.90;6.68;;;;;;;;;;5076126;28;20105;-60
2021/06/17 12:36:03;;;;;;;8.15;6.40;;;;;;;;;;5076317;28;20029;-60
2021/06/17 12:38:29;;;;;;;6.00;5.47;;;;;;;;;;5076159;28;20481;-60
2021/06/17 12:41:16;;;;;;;6.50;5.88;;;;;;;;;;5074903;28;20020;-60
2021/06/17 12:43:47;;;;;;;5.75;5.30;;;;;;;;;;5064514;28;20464;-60
2021/06/17 12:46:14;;;;;;;6.50;5.65;;;;;;;;;;5075877;28;20036;-60
2021/06/17 12:54:01;;;;;;;6.15;5.55;;;;;;;;;;5074679;28;20403;-60
2021/06/17 12:56:27;;;;;;;6.57;5.32;;;;;;;;;;5076089;28;20052;-60
2021/06/17 12:58:53;;;;;;;7.53;6.80;;;;;;;;;;5075828;28;20036;-60
2021/06/17 13:01:23;;;;;;;10.63;7.72;;;;;;;;;;5075701;28;20027;-60
2021/06/17 13:03:52;;;;;;;5.57;5.18;;;;;;;;;;5075322;28;20112;-60
2021/06/17 13:06:35;;;;;;;4.85;4.45;;;;;;;;;;5074666;28;20445;-60
2021/06/17 13:09:01;;;;;;;10.30;8.23;;;;;;;;;;5075674;28;20020;-60
2021/06/17 13:11:27;;;;;;;5.43;4.90;;;;;;;;;;5075629;28;20020;-60
2021/06/17 13:14:01;;;;;;;5.53;4.75;;;;;;;;;;5075536;28;20025;-60
2021/06/17 13:16:26;;;;;;;6.65;5.05;;;;;;;;;;5075553;28;20482;-60
2021/06/17 13:18:52;;;;;;;4.25;3.95;;;;;;;;;;5075666;28;20024;-60
2021/06/17 13:21:17;;;;;;;6.00;5.38;;;;;;;;;;5075382;28;20032;-60
2021/06/17 13:23:43;;;;;;;6.05;5.57;;;;;;;;;;5075369;28;20451;-60
2021/06/17 13:26:10;;;;;;;6.65;5.43;;;;;;;;;;5075224;28;20535;-60
2021/06/17 13:28:35;;;;;;;6.18;5.68;;;;;;;;;;5075395;28;20020;-60
2021/06/17 13:31:03;;;;;;;7.35;5.93;;;;;;;;;;5074095;28;20127;-60
2021/06/17 13:33:28;;;;;;;6.85;5.57;;;;;;;;;;5075408;28;20467;-60
2021/06/17 13:35:54;;;;;;;6.38;5.72;;;;;;;;;;5075169;28;20035;-60
2021/06/17 13:38:21;;;;;;;6.35;5.45;;;;;;;;;;5075064;28;20386;-60
2021/06/17 13:40:47;;;;;;;6.18;5.65;;;;;;;;;;5075155;28;20437;-60
2021/06/17 13:43:13;;;;;;;8.80;6.07;;;;;;;;;;5074284;28;20024;-60
2021/06/17 13:45:39;;;;;;;7.18;6.47;;;;;;;;;;5074844;28;20021;-60
2021/06/17 13:48:04;;;;;;;7.72;6.60;;;;;;;;;;5074854;28;20024;-60
2021/06/17 13:50:30;;;;;;;6.22;5.63;;;;;;;;;;5073602;28;20115;-60
2021/06/17 13:52:55;;;;;;;5.90;5.50;;;;;;;;;;5074758;28;20032;-60
2021/06/17 13:55:22;;;;;;;6.72;5.70;;;;;;;;;;5074570;28;20042;-60
2021/06/17 13:57:48;;;;;;;6.57;5.40;;;;;;;;;;5074684;28;20053;-60
2021/06/17 14:00:14;;;;;;;6.03;5.53;;;;;;;;;;5074585;28;20036;-60
2021/06/17 14:02:44;;;;;;;6.63;6.13;;;;;;;;;;5074652;28;20059;-60
2021/06/17 14:05:10;;;;;;;7.22;5.88;;;;;;;;;;5074369;28;20449;-60
2021/06/17 14:07:36;;;;;;;23.85;6.47;;;;;;;;;;5074347;28;20504;-60
2021/06/17 14:10:03;;;;;;;7.85;5.78;;;;;;;;;;5074443;28;20058;-60
2021/06/17 14:12:29;;;;;;;6.15;5.47;;;;;;;;;;5074424;28;20122;-60
2021/06/17 14:14:54;;;;;;;5.78;5.13;;;;;;;;;;5074455;28;20502;-60
2021/06/17 14:17:20;;;;;;;6.05;5.47;;;;;;;;;;5074451;28;20027;-60
2021/06/17 14:19:46;;;;;;;6.88;5.97;;;;;;;;;;5074238;28;20028;-60
2021/06/17 14:22:11;;;;;;;6.30;5.70;;;;;;;;;;5074194;28;20023;-60
2021/06/17 14:24:37;;;;;;;6.03;5.53;;;;;;;;;;5074107;28;20033;-60
2021/06/17 14:27:03;;;;;;;6.20;5.68;;;;;;;;;;5074065;28;20101;-60
2021/06/17 14:29:28;;;;;;;6.13;5.53;;;;;;;;;;5073073;28;20024;-60
2021/06/17 14:31:54;;;;;;;5.47;5.07;;;;;;;;;;5074060;28;20417;-60
2021/06/17 14:34:19;;;;;;;8.85;5.80;;;;;;;;;;5073944;28;20078;-60
2021/06/17 14:36:44;;;;;;;6.80;6.10;;;;;;;;;;5073984;28;20107;-60
2021/06/17 14:39:10;;;;;;;6.10;5.57;;;;;;;;;;5072675;28;20489;-60
2021/06/17 14:41:36;;;;;;;9.10;5.50;;;;;;;;;;5072552;28;20360;-60
2021/06/17 14:44:05;;;;;;;7.70;5.53;;;;;;;;;;5073842;28;20036;-60
2021/06/17 14:46:30;;;;;;;5.32;4.80;;;;;;;;;;5073810;28;20024;-60
2021/06/17 14:48:56;;;;;;;7.53;5.35;;;;;;;;;;5072562;28;20089;-60
2021/06/17 14:51:23;;;;;;;7.25;5.30;;;;;;;;;;5073640;28;20382;-60